createdAt,value
2018-04-28T00:00:25.385Z,62.62
2018-04-28T00:00:51.520Z,62.52
2018-04-28T00:01:17.652Z,62.71
2018-04-28T00:01:43.795Z,63.1
2018-04-28T00:02:09.935Z,62.9
2018-04-28T00:02:36.067Z,62.81
2018-04-28T00:03:02.259Z,62.9
2018-04-28T00:03:28.416Z,63
2018-04-28T00:03:54.548Z,62.71
2018-04-28T00:04:20.687Z,62.81
2018-04-28T00:04:46.831Z,62.9
2018-04-28T00:05:12.968Z,62.81
2018-04-28T00:05:39.110Z,62.71
2018-04-28T00:06:05.243Z,62.81
2018-04-28T00:06:31.410Z,63.1
2018-04-28T00:06:57.547Z,62.71
2018-04-28T00:07:23.696Z,63.1
2018-04-28T00:07:49.943Z,62.62
2018-04-28T00:08:15.997Z,63.1
2018-04-28T00:08:42.126Z,62.71
2018-04-28T00:09:08.266Z,62.9
2018-04-28T00:09:34.408Z,62.71
2018-04-28T00:10:00.579Z,62.97
2018-04-28T00:10:26.731Z,63.93
2018-04-28T00:10:52.866Z,63.16
2018-04-28T00:11:19.002Z,63.45
2018-04-28T00:11:45.136Z,63.64
2018-04-28T00:12:11.293Z,63.45
2018-04-28T00:12:37.429Z,63.45
2018-04-28T00:13:03.565Z,63.64
2018-04-28T00:13:29.720Z,63.64
2018-04-28T00:13:55.860Z,63.54
2018-04-28T00:14:21.999Z,63.54
2018-04-28T00:14:48.140Z,63.64
2018-04-28T00:15:14.272Z,63.45
2018-04-28T00:15:40.416Z,63.54
2018-04-28T00:16:06.577Z,63.54
2018-04-28T00:16:32.709Z,63.64
2018-04-28T00:16:58.849Z,63.73
2018-04-28T00:17:24.986Z,63.64
2018-04-28T00:17:51.130Z,63.83
2018-04-28T00:18:17.273Z,63.93
2018-04-28T00:18:43.437Z,63.54
2018-04-28T00:19:09.565Z,64.5
2018-04-28T00:19:35.703Z,64.31
2018-04-28T00:20:01.871Z,64.22
2018-04-28T00:20:28.026Z,64.31
2018-04-28T00:20:54.163Z,64.78
2018-04-28T00:21:20.353Z,64.88
2018-04-28T00:21:46.485Z,65.07
2018-04-28T00:22:12.654Z,64.59
2018-04-28T00:22:38.817Z,64.59
2018-04-28T00:23:04.954Z,64.69
2018-04-28T00:23:31.093Z,64.88
2018-04-28T00:23:57.223Z,64.88
2018-04-28T00:24:23.365Z,64.78
2018-04-28T00:24:49.542Z,64.78
2018-04-28T00:25:15.696Z,64.69
2018-04-28T00:25:41.841Z,64.78
2018-04-28T00:26:07.974Z,64.31
2018-04-28T00:26:34.137Z,64.69
2018-04-28T00:27:00.279Z,64.5
2018-04-28T00:27:26.421Z,64.98
2018-04-28T00:27:52.552Z,64.5
2018-04-28T00:28:18.697Z,64.88
2018-04-28T00:28:44.826Z,65.07
2018-04-28T00:29:10.974Z,64.69
2018-04-28T00:29:37.106Z,65.07
2018-04-28T00:30:03.269Z,64.5
2018-04-28T00:30:29.407Z,64.88
2018-04-28T00:30:55.551Z,64.98
2018-04-28T00:31:21.689Z,64.78
2018-04-28T00:31:47.825Z,64.88
2018-04-28T00:32:13.971Z,64.98
2018-04-28T00:32:40.109Z,64.88
2018-04-28T00:33:06.238Z,64.78
2018-04-28T00:33:32.376Z,64.88
2018-04-28T00:33:58.542Z,64.98
2018-04-28T00:34:24.704Z,64.88
2018-04-28T00:34:50.842Z,64.78
2018-04-28T00:35:16.981Z,65.17
2018-04-28T00:35:43.118Z,65.36
2018-04-28T00:36:09.343Z,65.55
2018-04-28T00:36:35.394Z,65.64
2018-04-28T00:37:01.565Z,65.07
2018-04-28T00:37:27.701Z,65.36
2018-04-28T00:37:53.859Z,65.45
2018-04-28T00:38:19.992Z,65.36
2018-04-28T00:38:46.133Z,65.36
2018-04-28T00:39:12.266Z,65.36
2018-04-28T00:39:38.409Z,65.17
2018-04-28T00:40:04.541Z,64.59
2018-04-28T00:40:30.683Z,65.26
2018-04-28T00:40:56.814Z,65.36
2018-04-28T00:41:22.945Z,65.07
2018-04-28T00:41:49.085Z,65.07
2018-04-28T00:42:15.213Z,65.36
2018-04-28T00:42:41.351Z,65.36
2018-04-28T00:43:07.487Z,65.26
2018-04-28T00:43:33.629Z,65.17
2018-04-28T00:43:59.765Z,65.26
2018-04-28T00:44:25.907Z,65.17
2018-04-28T00:44:52.043Z,65.55
2018-04-28T00:45:18.181Z,64.59
2018-04-28T00:45:44.323Z,64.98
2018-04-28T00:46:10.456Z,65.36
2018-04-28T00:46:36.591Z,65.17
2018-04-28T00:47:02.728Z,65.36
2018-04-28T00:47:28.868Z,65.36
2018-04-28T00:47:55.061Z,65.26
2018-04-28T00:48:21.210Z,65.36
2018-04-28T00:48:47.384Z,65.26
2018-04-28T00:49:13.528Z,65.17
2018-04-28T00:49:39.661Z,65.55
2018-04-28T00:50:05.805Z,65.17
2018-04-28T00:50:31.937Z,64.82
2018-04-28T00:50:58.079Z,64.78
2018-04-28T00:51:24.239Z,65.01
2018-04-28T00:51:50.382Z,64.88
2018-04-28T00:52:16.515Z,65.07
2018-04-28T00:52:42.657Z,64.91
2018-04-28T00:53:08.788Z,64.82
2018-04-28T00:53:34.929Z,64.91
2018-04-28T00:54:01.068Z,64.88
2018-04-28T00:54:27.198Z,64.43
2018-04-28T00:54:53.334Z,64.62
2018-04-28T00:55:22.503Z,64.62
2018-04-28T00:55:48.739Z,64.69
2018-04-28T00:56:14.871Z,64.72
2018-04-28T00:56:41.017Z,64.53
2018-04-28T00:57:07.161Z,64.82
2018-04-28T00:57:33.297Z,64.53
2018-04-28T00:57:59.437Z,64.72
2018-04-28T00:58:25.566Z,64.05
2018-04-28T00:58:51.724Z,64.25
2018-04-28T00:59:17.847Z,63.96
2018-04-28T00:59:43.985Z,64.15
2018-04-28T01:00:10.129Z,63.96
2018-04-28T01:00:36.261Z,64.05
2018-04-28T01:01:02.421Z,64.72
2018-04-28T01:01:28.581Z,64.72
2018-04-28T01:01:54.745Z,64.82
2018-04-28T01:02:20.891Z,64.82
2018-04-28T01:02:47.029Z,64.91
2018-04-28T01:03:13.168Z,64.53
2018-04-28T01:03:39.334Z,64.15
2018-04-28T01:04:05.489Z,64.53
2018-04-28T01:04:31.656Z,64.15
2018-04-28T01:04:57.795Z,64.15
2018-04-28T01:05:23.960Z,64.05
2018-04-28T01:05:50.095Z,64.25
2018-04-28T01:06:16.259Z,64.34
2018-04-28T01:06:42.415Z,64.34
2018-04-28T01:07:08.550Z,64.53
2018-04-28T01:07:34.722Z,64.25
2018-04-28T01:08:00.854Z,64.34
2018-04-28T01:08:26.991Z,63.76
2018-04-28T01:08:53.133Z,63.67
2018-04-28T01:09:19.300Z,63.39
2018-04-28T01:09:45.459Z,63.67
2018-04-28T01:10:11.605Z,63.76
2018-04-28T01:10:37.736Z,63.76
2018-04-28T01:11:03.881Z,63.76
2018-04-28T01:11:30.037Z,63.29
2018-04-28T01:11:56.172Z,63.76
2018-04-28T01:12:22.309Z,63.39
2018-04-28T01:12:48.467Z,63.48
2018-04-28T01:13:14.674Z,63.48
2018-04-28T01:13:40.744Z,63.76
2018-04-28T01:14:06.909Z,63.76
2018-04-28T01:14:33.050Z,63.19
2018-04-28T01:14:59.195Z,63.67
2018-04-28T01:15:25.324Z,63.1
2018-04-28T01:15:51.485Z,63.76
2018-04-28T01:16:17.650Z,63.86
2018-04-28T01:16:43.792Z,63.76
2018-04-28T01:17:09.925Z,63.45
2018-04-28T01:17:36.064Z,63.67
2018-04-28T01:18:02.209Z,63.45
2018-04-28T01:18:28.347Z,63
2018-04-28T01:18:54.484Z,63.26
2018-04-28T01:19:20.647Z,63.54
2018-04-28T01:19:46.779Z,63.54
2018-04-28T01:20:12.924Z,63.54
2018-04-28T01:20:39.057Z,63.54
2018-04-28T01:21:05.199Z,63.26
2018-04-28T01:21:31.354Z,63.26
2018-04-28T01:21:57.499Z,63.54
2018-04-28T01:22:23.634Z,63.54
2018-04-28T01:22:49.780Z,63.45
2018-04-28T01:23:15.943Z,63.16
2018-04-28T01:23:42.082Z,63.07
2018-04-28T01:24:08.217Z,63.07
2018-04-28T01:24:34.357Z,63.07
2018-04-28T01:25:00.522Z,63.07
2018-04-28T01:25:26.654Z,62.97
2018-04-28T01:25:52.788Z,63.35
2018-04-28T01:26:18.936Z,62.97
2018-04-28T01:26:45.066Z,63.35
2018-04-28T01:27:11.207Z,63.35
2018-04-28T01:27:37.346Z,63.45
2018-04-28T01:28:03.481Z,63.16
2018-04-28T01:28:29.617Z,63.45
2018-04-28T01:28:55.787Z,62.68
2018-04-28T01:29:21.949Z,62.97
2018-04-28T01:29:48.111Z,62.87
2018-04-28T01:30:14.246Z,62.87
2018-04-28T01:30:40.388Z,63.26
2018-04-28T01:31:06.530Z,63.54
2018-04-28T01:31:32.682Z,62.68
2018-04-28T01:31:58.818Z,62.87
2018-04-28T01:32:24.962Z,63.07
2018-04-28T01:32:51.101Z,62.87
2018-04-28T01:33:17.242Z,63.07
2018-04-28T01:33:43.454Z,63.07
2018-04-28T01:34:09.544Z,63.26
2018-04-28T01:34:35.712Z,62.68
2018-04-28T01:35:01.854Z,62.68
2018-04-28T01:35:27.992Z,63.54
2018-04-28T01:35:54.139Z,63.26
2018-04-28T01:36:20.269Z,62.97
2018-04-28T01:36:46.411Z,63.16
2018-04-28T01:37:12.570Z,63.35
2018-04-28T01:37:38.710Z,62.97
2018-04-28T01:38:04.875Z,63.07
2018-04-28T01:38:31.012Z,63.16
2018-04-28T01:38:57.194Z,63.07
2018-04-28T01:39:23.335Z,63.26
2018-04-28T01:39:49.470Z,63.64
2018-04-28T01:40:15.610Z,63.45
2018-04-28T01:40:41.746Z,63.54
2018-04-28T01:41:07.883Z,63.93
2018-04-28T01:41:34.023Z,63.83
2018-04-28T01:42:00.161Z,62.97
2018-04-28T01:42:26.326Z,63.83
2018-04-28T01:42:52.463Z,63.35
2018-04-28T01:43:18.626Z,63.16
2018-04-28T01:43:44.759Z,63.45
2018-04-28T01:44:10.907Z,63.54
2018-04-28T01:44:37.041Z,63.73
2018-04-28T01:45:03.199Z,63.54
2018-04-28T01:45:29.339Z,63.45
2018-04-28T01:45:55.480Z,63.73
2018-04-28T01:46:21.661Z,63.45
2018-04-28T01:46:47.799Z,63.73
2018-04-28T01:47:13.938Z,63.64
2018-04-28T01:47:40.078Z,63.64
2018-04-28T01:48:06.234Z,63.64
2018-04-28T01:48:32.390Z,63.83
2018-04-28T01:48:58.535Z,63.93
2018-04-28T01:49:24.678Z,63.35
2018-04-28T01:49:50.846Z,63.54
2018-04-28T01:50:16.995Z,63.45
2018-04-28T01:50:43.141Z,63.73
2018-04-28T01:51:09.310Z,63.93
2018-04-28T01:51:35.463Z,63.54
2018-04-28T01:52:01.598Z,64.31
2018-04-28T01:52:27.740Z,64.22
2018-04-28T01:52:53.898Z,64.22
2018-04-28T01:53:20.044Z,64.4
2018-04-28T01:53:46.177Z,64.4
2018-04-28T01:54:12.320Z,64.22
2018-04-28T01:54:38.483Z,64.02
2018-04-28T01:55:04.623Z,64.12
2018-04-28T01:55:30.750Z,64.12
2018-04-28T01:55:56.894Z,63.93
2018-04-28T01:56:23.035Z,64.59
2018-04-28T01:56:49.178Z,64.22
2018-04-28T01:57:15.311Z,64.09
2018-04-28T01:57:41.456Z,64.22
2018-04-28T01:58:07.592Z,64.5
2018-04-28T01:58:33.726Z,64.22
2018-04-28T01:58:59.882Z,64.98
2018-04-28T01:59:26.025Z,64.5
2018-04-28T01:59:52.170Z,64.88
2018-04-28T02:00:18.305Z,64.78
2018-04-28T02:00:44.448Z,64.88
2018-04-28T02:01:10.604Z,64.88
2018-04-28T02:01:36.755Z,64.88
2018-04-28T02:02:02.889Z,64.88
2018-04-28T02:02:29.046Z,64.88
2018-04-28T02:02:55.185Z,64.88
2018-04-28T02:03:21.338Z,64.88
2018-04-28T02:03:47.468Z,64.69
2018-04-28T02:04:13.600Z,64.59
2018-04-28T02:04:39.748Z,64.5
2018-04-28T02:05:05.878Z,64.78
2018-04-28T02:05:32.018Z,64.78
2018-04-28T02:05:58.156Z,64.88
2018-04-28T02:06:24.319Z,64.78
2018-04-28T02:06:50.489Z,64.69
2018-04-28T02:07:16.623Z,64.69
2018-04-28T02:07:42.754Z,64.98
2018-04-28T02:08:08.897Z,64.5
2018-04-28T02:08:35.039Z,64.88
2018-04-28T02:09:01.178Z,65.07
2018-04-28T02:09:27.307Z,64.88
2018-04-28T02:09:53.471Z,64.88
2018-04-28T02:10:19.609Z,64.78
2018-04-28T02:10:45.745Z,64.94
2018-04-28T02:11:11.877Z,65.17
2018-04-28T02:11:38.015Z,65.17
2018-04-28T02:12:04.175Z,65.52
2018-04-28T02:12:30.323Z,65.23
2018-04-28T02:12:56.462Z,65.33
2018-04-28T02:13:22.601Z,65.36
2018-04-28T02:13:48.755Z,65.23
2018-04-28T02:14:14.882Z,65.17
2018-04-28T02:14:41.016Z,64.94
2018-04-28T02:15:07.160Z,65.36
2018-04-28T02:15:33.302Z,65.52
2018-04-28T02:15:59.432Z,65.9
2018-04-28T02:16:25.570Z,65.8
2018-04-28T02:16:51.710Z,65.74
2018-04-28T02:17:17.846Z,65.52
2018-04-28T02:17:43.995Z,65.42
2018-04-28T02:18:10.156Z,66
2018-04-28T02:18:36.296Z,66.19
2018-04-28T02:19:02.453Z,66.28
2018-04-28T02:19:28.591Z,66.19
2018-04-28T02:19:54.728Z,66.31
2018-04-28T02:20:20.911Z,66.28
2018-04-28T02:20:47.050Z,66
2018-04-28T02:21:13.191Z,66
2018-04-28T02:21:39.325Z,65.61
2018-04-28T02:22:05.488Z,66.13
2018-04-28T02:22:31.624Z,66.22
2018-04-28T02:22:57.787Z,66.13
2018-04-28T02:23:23.953Z,66.03
2018-04-28T02:23:50.090Z,66.38
2018-04-28T02:24:16.227Z,66.28
2018-04-28T02:24:42.372Z,66.19
2018-04-28T02:25:08.526Z,66.28
2018-04-28T02:25:34.677Z,66
2018-04-28T02:26:00.852Z,66.22
2018-04-28T02:26:26.988Z,65.8
2018-04-28T02:26:53.132Z,66.13
2018-04-28T02:27:19.267Z,66.19
2018-04-28T02:27:45.409Z,66.22
2018-04-28T02:28:11.541Z,66.19
2018-04-28T02:28:37.701Z,66.76
2018-04-28T02:29:03.836Z,66.76
2018-04-28T02:29:29.975Z,66.85
2018-04-28T02:29:56.137Z,66.66
2018-04-28T02:30:22.291Z,66.28
2018-04-28T02:30:48.454Z,66.31
2018-04-28T02:31:14.635Z,66.47
2018-04-28T02:31:40.801Z,66.41
2018-04-28T02:32:06.940Z,66.7
2018-04-28T02:32:33.083Z,66.76
2018-04-28T02:32:59.219Z,66.56
2018-04-28T02:33:25.365Z,66.56
2018-04-28T02:33:51.558Z,66.47
2018-04-28T02:34:17.707Z,66.95
2018-04-28T02:34:43.839Z,67.08
2018-04-28T02:35:10.000Z,67.14
2018-04-28T02:35:36.136Z,67.05
2018-04-28T02:36:02.278Z,67.05
2018-04-28T02:36:28.450Z,67.05
2018-04-28T02:36:54.641Z,67.05
2018-04-28T02:37:20.771Z,66.85
2018-04-28T02:37:46.944Z,66.85
2018-04-28T02:38:13.101Z,66.95
2018-04-28T02:38:39.291Z,67.05
2018-04-28T02:39:05.473Z,67.05
2018-04-28T02:39:31.615Z,67.14
2018-04-28T02:39:57.776Z,67.36
2018-04-28T02:40:23.986Z,67.18
2018-04-28T02:40:50.122Z,67.52
2018-04-28T02:41:16.290Z,67.55
2018-04-28T02:41:42.451Z,67.52
2018-04-28T02:42:08.611Z,67.62
2018-04-28T02:42:34.767Z,67.81
2018-04-28T02:43:00.951Z,67.91
2018-04-28T02:43:27.094Z,67.94
2018-04-28T02:43:53.231Z,67.91
2018-04-28T02:44:19.418Z,67.65
2018-04-28T02:44:45.607Z,67.65
2018-04-28T02:45:11.776Z,67.36
2018-04-28T02:45:37.933Z,67.55
2018-04-28T02:46:04.071Z,67.36
2018-04-28T02:46:30.242Z,68.13
2018-04-28T02:46:56.383Z,67.94
2018-04-28T02:47:22.541Z,68.19
2018-04-28T02:47:48.708Z,67.84
2018-04-28T02:48:14.867Z,68.04
2018-04-28T02:48:41.023Z,67.75
2018-04-28T02:49:07.164Z,68.04
2018-04-28T02:49:33.324Z,67.91
2018-04-28T02:49:59.591Z,68
2018-04-28T02:50:25.631Z,68.29
2018-04-28T02:50:51.764Z,67.94
2018-04-28T02:51:17.947Z,67.91
2018-04-28T02:51:44.136Z,67.75
2018-04-28T02:52:10.326Z,68
2018-04-28T02:52:36.462Z,67.84
2018-04-28T02:53:02.609Z,67.81
2018-04-28T02:53:28.776Z,68.29
2018-04-28T02:53:54.939Z,68.29
2018-04-28T02:54:21.077Z,67.81
2018-04-28T02:54:47.213Z,67.75
2018-04-28T02:55:13.356Z,68.13
2018-04-28T02:55:39.513Z,67.91
2018-04-28T02:56:05.732Z,68.32
2018-04-28T02:56:31.900Z,67.91
2018-04-28T02:56:58.031Z,68.23
2018-04-28T02:57:24.165Z,68.19
2018-04-28T02:57:50.352Z,68.51
2018-04-28T02:58:16.488Z,68.19
2018-04-28T02:58:42.650Z,68.67
2018-04-28T02:59:08.790Z,68.19
2018-04-28T02:59:34.925Z,68.7
2018-04-28T03:00:01.068Z,68.7
2018-04-28T03:00:27.211Z,68.67
2018-04-28T03:00:53.376Z,68.41
2018-04-28T03:01:19.559Z,68.76
2018-04-28T03:01:45.749Z,68.7
2018-04-28T03:02:11.884Z,68.8
2018-04-28T03:02:38.037Z,68.57
2018-04-28T03:03:04.184Z,68.38
2018-04-28T03:03:30.394Z,68.51
2018-04-28T03:03:56.552Z,68.7
2018-04-28T03:04:22.719Z,68.7
2018-04-28T03:04:48.853Z,68.67
2018-04-28T03:05:15.031Z,68.7
2018-04-28T03:05:41.221Z,68.67
2018-04-28T03:06:07.362Z,68.61
2018-04-28T03:06:33.567Z,68.57
2018-04-28T03:06:59.729Z,68.8
2018-04-28T03:07:25.893Z,68.7
2018-04-28T03:07:52.079Z,68.8
2018-04-28T03:08:18.219Z,68.8
2018-04-28T03:08:44.351Z,68.41
2018-04-28T03:09:10.539Z,68.48
2018-04-28T03:09:36.724Z,68.32
2018-04-28T03:10:02.867Z,68.32
2018-04-28T03:10:29.002Z,68.41
2018-04-28T03:10:55.160Z,68.61
2018-04-28T03:11:21.291Z,68.86
2018-04-28T03:11:47.457Z,68.8
2018-04-28T03:12:13.606Z,68.8
2018-04-28T03:12:39.747Z,68.76
2018-04-28T03:13:05.911Z,68.76
2018-04-28T03:13:32.046Z,68.7
2018-04-28T03:13:58.208Z,68.57
2018-04-28T03:14:24.390Z,68.7
2018-04-28T03:14:50.561Z,68.61
2018-04-28T03:15:16.691Z,68.7
2018-04-28T03:15:42.867Z,68.7
2018-04-28T03:16:09.007Z,68.8
2018-04-28T03:16:35.196Z,68.7
2018-04-28T03:17:01.330Z,68.7
2018-04-28T03:17:27.473Z,68.51
2018-04-28T03:17:53.610Z,69.18
2018-04-28T03:18:19.743Z,68.76
2018-04-28T03:18:45.886Z,68.99
2018-04-28T03:19:12.024Z,68.8
2018-04-28T03:19:38.162Z,68.99
2018-04-28T03:20:04.305Z,68.99
2018-04-28T03:20:30.438Z,69.09
2018-04-28T03:20:56.584Z,69.05
2018-04-28T03:21:22.740Z,69.09
2018-04-28T03:21:48.883Z,69.09
2018-04-28T03:22:15.021Z,69.05
2018-04-28T03:22:41.154Z,69.05
2018-04-28T03:23:07.293Z,68.67
2018-04-28T03:23:33.479Z,68.86
2018-04-28T03:23:59.619Z,69.05
2018-04-28T03:24:25.804Z,69.15
2018-04-28T03:24:51.893Z,69.05
2018-04-28T03:25:18.031Z,69.15
2018-04-28T03:25:44.198Z,69.05
2018-04-28T03:26:10.351Z,69.09
2018-04-28T03:26:36.492Z,69.05
2018-04-28T03:27:02.630Z,68.86
2018-04-28T03:27:28.769Z,68.99
2018-04-28T03:27:54.900Z,68.96
2018-04-28T03:28:21.119Z,69.15
2018-04-28T03:28:47.226Z,69.15
2018-04-28T03:29:13.372Z,69.18
2018-04-28T03:29:39.508Z,68.96
2018-04-28T03:30:05.652Z,69.15
2018-04-28T03:30:31.783Z,68.8
2018-04-28T03:30:57.918Z,69.15
2018-04-28T03:31:24.111Z,69.34
2018-04-28T03:31:50.248Z,68.96
2018-04-28T03:32:16.378Z,68.99
2018-04-28T03:32:42.515Z,69.05
2018-04-28T03:33:08.653Z,68.9
2018-04-28T03:33:34.787Z,69.05
2018-04-28T03:34:00.923Z,68.86
2018-04-28T03:34:27.063Z,68.96
2018-04-28T03:34:53.207Z,68.96
2018-04-28T03:35:19.344Z,69.05
2018-04-28T03:35:45.509Z,69.15
2018-04-28T03:36:11.645Z,69.05
2018-04-28T03:36:37.797Z,69.34
2018-04-28T03:37:03.944Z,69.18
2018-04-28T03:37:30.105Z,68.38
2018-04-28T03:37:56.248Z,68.86
2018-04-28T03:38:22.383Z,68.67
2018-04-28T03:38:48.548Z,68.76
2018-04-28T03:39:14.686Z,68.67
2018-04-28T03:39:40.822Z,68.76
2018-04-28T03:40:06.983Z,68.57
2018-04-28T03:40:33.121Z,68.76
2018-04-28T03:40:59.258Z,68.67
2018-04-28T03:41:25.427Z,68.67
2018-04-28T03:41:51.568Z,68.61
2018-04-28T03:42:17.729Z,68.76
2018-04-28T03:42:43.891Z,68.9
2018-04-28T03:43:10.058Z,68.9
2018-04-28T03:43:36.199Z,68.8
2018-04-28T03:44:02.334Z,68.41
2018-04-28T03:44:28.474Z,68.51
2018-04-28T03:44:54.615Z,68.57
2018-04-28T03:45:20.779Z,68.61
2018-04-28T03:45:46.921Z,68.48
2018-04-28T03:46:13.061Z,68.57
2018-04-28T03:46:39.226Z,68.67
2018-04-28T03:47:05.366Z,68.57
2018-04-28T03:47:31.522Z,68.29
2018-04-28T03:47:57.657Z,68.38
2018-04-28T03:48:23.803Z,68.76
2018-04-28T03:48:49.982Z,68.86
2018-04-28T03:49:16.146Z,68.76
2018-04-28T03:49:42.280Z,68.57
2018-04-28T03:50:08.454Z,68.67
2018-04-28T03:50:34.634Z,68.67
2018-04-28T03:51:00.774Z,68.67
2018-04-28T03:51:26.908Z,68.57
2018-04-28T03:51:53.072Z,68.9
2018-04-28T03:52:19.200Z,68.96
2018-04-28T03:52:45.346Z,68.76
2018-04-28T03:53:11.479Z,68.76
2018-04-28T03:53:37.620Z,68.76
2018-04-28T03:54:03.783Z,68.57
2018-04-28T03:54:29.926Z,68.76
2018-04-28T03:54:56.066Z,68.51
2018-04-28T03:55:22.205Z,68.57
2018-04-28T03:55:48.374Z,68.61
2018-04-28T03:56:14.509Z,68.61
2018-04-28T03:56:40.638Z,68.7
2018-04-28T03:57:06.775Z,68.8
2018-04-28T03:57:32.912Z,68.7
2018-04-28T03:57:59.051Z,68.76
2018-04-28T03:58:25.213Z,68.48
2018-04-28T03:58:51.381Z,68.86
2018-04-28T03:59:17.537Z,68.76
2018-04-28T03:59:43.669Z,68.86
2018-04-28T04:00:09.808Z,68.57
2018-04-28T04:00:35.974Z,68.57
2018-04-28T04:01:02.109Z,68.67
2018-04-28T04:01:28.246Z,68.57
2018-04-28T04:01:54.407Z,68.67
2018-04-28T04:02:20.547Z,68.61
2018-04-28T04:02:46.690Z,68.76
2018-04-28T04:03:12.853Z,68.67
2018-04-28T04:03:38.990Z,68.67
2018-04-28T04:04:05.138Z,68.76
2018-04-28T04:04:31.270Z,68.38
2018-04-28T04:04:57.434Z,69.24
2018-04-28T04:05:23.574Z,69.24
2018-04-28T04:05:49.707Z,69.15
2018-04-28T04:06:15.848Z,68.86
2018-04-28T04:06:41.986Z,69.05
2018-04-28T04:07:08.124Z,69.05
2018-04-28T04:07:34.263Z,68.86
2018-04-28T04:08:00.395Z,68.67
2018-04-28T04:08:26.540Z,68.86
2018-04-28T04:08:52.675Z,68.86
2018-04-28T04:09:18.815Z,68.96
2018-04-28T04:09:44.957Z,68.96
2018-04-28T04:10:11.098Z,68.96
2018-04-28T04:10:37.253Z,69.24
2018-04-28T04:11:03.399Z,68.76
2018-04-28T04:11:29.538Z,69.15
2018-04-28T04:11:55.674Z,68.86
2018-04-28T04:12:21.810Z,69.15
2018-04-28T04:12:47.955Z,68.96
2018-04-28T04:13:14.109Z,69.05
2018-04-28T04:13:40.249Z,69.24
2018-04-28T04:14:06.381Z,68.67
2018-04-28T04:14:32.528Z,68.76
2018-04-28T04:14:58.669Z,69.24
2018-04-28T04:15:24.807Z,69.24
2018-04-28T04:15:50.943Z,69.62
2018-04-28T04:16:17.109Z,69.72
2018-04-28T04:16:43.244Z,69.34
2018-04-28T04:17:09.385Z,69.53
2018-04-28T04:17:35.525Z,69.34
2018-04-28T04:18:01.689Z,69.15
2018-04-28T04:18:27.840Z,69.72
2018-04-28T04:18:53.999Z,69.72
2018-04-28T04:19:20.141Z,69.82
2018-04-28T04:19:46.274Z,69.24
2018-04-28T04:20:12.440Z,69.15
2018-04-28T04:20:38.587Z,69.15
2018-04-28T04:21:04.724Z,69.15
2018-04-28T04:21:30.863Z,69.34
2018-04-28T04:21:56.995Z,69.24
2018-04-28T04:22:23.130Z,69.34
2018-04-28T04:22:49.265Z,69.43
2018-04-28T04:23:15.410Z,69.72
2018-04-28T04:23:41.545Z,69.72
2018-04-28T04:24:07.693Z,69.53
2018-04-28T04:24:33.817Z,69.24
2018-04-28T04:24:59.955Z,69.24
2018-04-28T04:25:26.096Z,69.15
2018-04-28T04:25:52.230Z,69.56
2018-04-28T04:26:18.400Z,69.34
2018-04-28T04:26:44.535Z,69.05
2018-04-28T04:27:10.683Z,69.24
2018-04-28T04:27:36.845Z,69.27
2018-04-28T04:28:02.978Z,68.99
2018-04-28T04:28:29.120Z,69.34
2018-04-28T04:28:55.307Z,69.24
2018-04-28T04:29:21.428Z,69.27
2018-04-28T04:29:47.569Z,69.37
2018-04-28T04:30:13.725Z,69.18
2018-04-28T04:30:39.868Z,69.24
2018-04-28T04:31:06.005Z,69.27
2018-04-28T04:31:32.139Z,69.24
2018-04-28T04:31:58.306Z,68.99
2018-04-28T04:32:24.413Z,69.09
2018-04-28T04:32:50.553Z,69.27
2018-04-28T04:33:16.684Z,69.37
2018-04-28T04:33:42.831Z,69.27
2018-04-28T04:34:08.966Z,68.9
2018-04-28T04:34:35.132Z,68.9
2018-04-28T04:35:01.271Z,68.9
2018-04-28T04:35:27.408Z,69.09
2018-04-28T04:35:53.548Z,68.99
2018-04-28T04:36:19.685Z,68.9
2018-04-28T04:36:45.821Z,69.18
2018-04-28T04:37:11.982Z,69.27
2018-04-28T04:37:38.157Z,69.18
2018-04-28T04:38:04.287Z,69.09
2018-04-28T04:38:30.429Z,69.27
2018-04-28T04:38:56.578Z,69.18
2018-04-28T04:39:22.710Z,68.99
2018-04-28T04:39:48.852Z,69.18
2018-04-28T04:40:15.003Z,69.27
2018-04-28T04:40:41.133Z,69.27
2018-04-28T04:41:07.268Z,68.61
2018-04-28T04:41:33.411Z,68.8
2018-04-28T04:41:59.554Z,68.7
2018-04-28T04:42:25.688Z,68.9
2018-04-28T04:42:51.826Z,68.8
2018-04-28T04:43:17.996Z,68.8
2018-04-28T04:43:44.131Z,68.8
2018-04-28T04:44:10.271Z,68.8
2018-04-28T04:44:36.404Z,68.9
2018-04-28T04:45:02.570Z,68.7
2018-04-28T04:45:28.728Z,68.7
2018-04-28T04:45:54.867Z,68.61
2018-04-28T04:46:20.999Z,68.99
2018-04-28T04:46:47.168Z,68.32
2018-04-28T04:47:13.306Z,68.32
2018-04-28T04:47:39.470Z,68.61
2018-04-28T04:48:05.640Z,68.7
2018-04-28T04:48:31.779Z,68.61
2018-04-28T04:48:57.919Z,68.7
2018-04-28T04:49:24.056Z,68.32
2018-04-28T04:49:50.198Z,68.32
2018-04-28T04:50:16.331Z,68.13
2018-04-28T04:50:42.464Z,67.65
2018-04-28T04:51:08.610Z,67.84
2018-04-28T04:51:34.748Z,67.75
2018-04-28T04:52:00.911Z,67.84
2018-04-28T04:52:27.042Z,67.65
2018-04-28T04:52:53.185Z,68.13
2018-04-28T04:53:19.317Z,68.35
2018-04-28T04:53:45.461Z,67.94
2018-04-28T04:54:11.602Z,68.16
2018-04-28T04:54:37.738Z,67.78
2018-04-28T04:55:03.882Z,67.84
2018-04-28T04:55:30.013Z,68.16
2018-04-28T04:55:56.172Z,68.26
2018-04-28T04:56:22.316Z,67.4
2018-04-28T04:56:48.456Z,67.69
2018-04-28T04:57:14.590Z,67.36
2018-04-28T04:57:40.734Z,67.59
2018-04-28T04:58:06.892Z,67.69
2018-04-28T04:58:33.027Z,67.3
2018-04-28T04:58:59.165Z,67.3
2018-04-28T04:59:25.303Z,67.3
2018-04-28T04:59:51.443Z,67.3
2018-04-28T05:00:17.582Z,67.21
2018-04-28T05:00:43.722Z,67.4
2018-04-28T05:01:09.887Z,67.46
2018-04-28T05:01:36.017Z,67.3
2018-04-28T05:02:02.155Z,67.3
2018-04-28T05:02:28.305Z,67.21
2018-04-28T05:02:54.474Z,67.21
2018-04-28T05:03:20.638Z,67.21
2018-04-28T05:03:46.766Z,67.02
2018-04-28T05:04:12.908Z,67.4
2018-04-28T05:04:39.100Z,67.21
2018-04-28T05:05:05.241Z,67.21
2018-04-28T05:05:31.378Z,67.21
2018-04-28T05:05:57.527Z,67.69
2018-04-28T05:06:23.682Z,67.02
2018-04-28T05:06:49.820Z,67.11
2018-04-28T05:07:15.976Z,67.02
2018-04-28T05:07:42.118Z,67.11
2018-04-28T05:08:08.250Z,67.02
2018-04-28T05:08:34.431Z,67.11
2018-04-28T05:09:00.530Z,67.4
2018-04-28T05:09:26.677Z,67.02
2018-04-28T05:09:52.813Z,67.11
2018-04-28T05:10:18.956Z,67.11
2018-04-28T05:10:45.092Z,67.11
2018-04-28T05:11:11.225Z,67.3
2018-04-28T05:11:37.389Z,67.3
2018-04-28T05:12:03.525Z,67.3
2018-04-28T05:12:29.659Z,66.83
2018-04-28T05:12:55.802Z,66.63
2018-04-28T05:13:21.938Z,66.44
2018-04-28T05:13:48.080Z,66.63
2018-04-28T05:14:14.209Z,66.54
2018-04-28T05:14:40.349Z,66.73
2018-04-28T05:15:06.485Z,66.44
2018-04-28T05:15:32.629Z,66.54
2018-04-28T05:15:58.769Z,66.63
2018-04-28T05:16:24.902Z,66.63
2018-04-28T05:16:51.039Z,66.63
2018-04-28T05:17:17.180Z,66.63
2018-04-28T05:17:43.324Z,66.83
2018-04-28T05:18:09.459Z,66.35
2018-04-28T05:18:35.597Z,66.25
2018-04-28T05:19:01.797Z,66.54
2018-04-28T05:19:27.893Z,66.25
2018-04-28T05:19:54.042Z,66.73
2018-04-28T05:20:20.175Z,66.54
2018-04-28T05:20:46.332Z,66.73
2018-04-28T05:21:12.483Z,66.35
2018-04-28T05:21:38.670Z,66.25
2018-04-28T05:22:04.810Z,66.16
2018-04-28T05:22:30.950Z,66.73
2018-04-28T05:22:57.084Z,66.73
2018-04-28T05:23:23.231Z,66.73
2018-04-28T05:23:49.386Z,66.73
2018-04-28T05:24:15.516Z,66.25
2018-04-28T05:24:41.650Z,65.77
2018-04-28T05:25:07.802Z,66.16
2018-04-28T05:25:33.937Z,65.97
2018-04-28T05:26:00.071Z,65.77
2018-04-28T05:26:26.208Z,65.97
2018-04-28T05:26:52.357Z,66.47
2018-04-28T05:27:18.495Z,66.06
2018-04-28T05:27:44.625Z,66
2018-04-28T05:28:10.761Z,65.87
2018-04-28T05:28:36.898Z,66.09
2018-04-28T05:29:03.033Z,66.09
2018-04-28T05:29:29.173Z,66.09
2018-04-28T05:29:55.309Z,65.42
2018-04-28T05:30:21.452Z,65.9
2018-04-28T05:30:47.595Z,65.14
2018-04-28T05:31:13.752Z,65.23
2018-04-28T05:31:39.918Z,64.95
2018-04-28T05:32:06.059Z,64.66
2018-04-28T05:32:32.196Z,64.28
2018-04-28T05:32:58.339Z,64.47
2018-04-28T05:33:24.473Z,64.56
2018-04-28T05:33:50.617Z,64.66
2018-04-28T05:34:16.759Z,64.75
2018-04-28T05:34:42.897Z,64.66
2018-04-28T05:35:09.032Z,64.75
2018-04-28T05:35:35.175Z,64.56
2018-04-28T05:36:01.365Z,64.85
2018-04-28T05:36:27.456Z,64.95
2018-04-28T05:36:53.607Z,63.99
2018-04-28T05:37:19.759Z,64.18
2018-04-28T05:37:45.897Z,64.09
2018-04-28T05:38:12.048Z,63.99
2018-04-28T05:38:38.183Z,64.47